createdAt,value
2018-08-13T00:00:34.964Z,23.28
2018-08-13T00:01:35.360Z,23.25
2018-08-13T00:02:35.160Z,23.27
2018-08-13T00:03:34.914Z,23.27
2018-08-13T00:04:35.085Z,23.27
2018-08-13T00:05:35.081Z,23.26
2018-08-13T00:06:35.149Z,23.27
2018-08-13T00:07:35.761Z,23.26
2018-08-13T00:08:35.007Z,23.27
2018-08-13T00:09:35.022Z,23.26
2018-08-13T00:10:35.215Z,23.24
2018-08-13T00:11:35.236Z,23.28
2018-08-13T00:12:35.254Z,23.26
2018-08-13T00:13:35.002Z,23.27
2018-08-13T00:14:35.550Z,23.28
2018-08-13T00:15:35.240Z,23.27
2018-08-13T00:16:35.038Z,23.26
2018-08-13T00:17:35.612Z,23.27
2018-08-13T00:18:34.997Z,23.27
2018-08-13T00:19:35.086Z,23.24
2018-08-13T00:20:34.893Z,23.28
2018-08-13T00:21:35.206Z,23.28
2018-08-13T00:22:35.156Z,23.27
2018-08-13T00:23:35.063Z,23.26
2018-08-13T00:24:35.208Z,23.25
2018-08-13T00:25:35.185Z,23.26
2018-08-13T00:26:34.967Z,23.25
2018-08-13T00:27:35.059Z,23.25
2018-08-13T00:28:35.208Z,23.24
2018-08-13T00:29:34.961Z,23.27
2018-08-13T00:30:35.186Z,23.25
2018-08-13T00:31:35.234Z,23.25
2018-08-13T00:32:35.169Z,23.25
2018-08-13T00:33:34.941Z,23.26
2018-08-13T00:34:35.174Z,23.25
2018-08-13T00:35:35.246Z,23.27
2018-08-13T00:36:35.240Z,23.26
2018-08-13T00:37:35.246Z,23.26
2018-08-13T00:38:34.908Z,23.26
2018-08-13T00:39:35.052Z,23.25
2018-08-13T00:40:35.067Z,23.23
2018-08-13T00:41:35.232Z,23.25
2018-08-13T00:42:35.136Z,23.25
2018-08-13T00:43:35.035Z,23.23
2018-08-13T00:44:35.137Z,23.27
2018-08-13T00:45:34.993Z,23.23
2018-08-13T00:46:35.027Z,23.26
2018-08-13T00:47:34.964Z,23.24
2018-08-13T00:48:35.087Z,23.25
2018-08-13T00:49:35.197Z,23.24
2018-08-13T00:50:34.953Z,23.25
2018-08-13T00:51:35.258Z,23.25
2018-08-13T00:52:35.121Z,23.23
2018-08-13T00:53:34.962Z,23.23
2018-08-13T00:54:35.199Z,23.24
2018-08-13T00:55:35.255Z,23.25
2018-08-13T00:56:34.917Z,23.26
2018-08-13T00:57:35.219Z,23.25
2018-08-13T00:58:35.209Z,23.25
2018-08-13T00:59:35.180Z,23.24
2018-08-13T01:00:35.037Z,23.23
2018-08-13T01:01:35.131Z,23.23
2018-08-13T01:02:34.954Z,23.26
2018-08-13T01:03:35.122Z,23.23
2018-08-13T01:04:35.097Z,23.24
2018-08-13T01:05:35.090Z,23.23
2018-08-13T01:06:35.047Z,23.25
2018-08-13T01:07:34.963Z,23.24
2018-08-13T01:08:35.137Z,23.23
2018-08-13T01:09:34.916Z,23.22
2018-08-13T01:10:35.093Z,23.25
2018-08-13T01:11:35.131Z,23.23
2018-08-13T01:12:35.000Z,23.25
2018-08-13T01:13:35.128Z,23.24
2018-08-13T01:14:35.104Z,23.24
2018-08-13T01:15:35.066Z,23.24
2018-08-13T01:16:35.325Z,23.25
2018-08-13T01:17:35.247Z,23.23
2018-08-13T01:18:35.187Z,23.23
2018-08-13T01:19:35.185Z,23.23
2018-08-13T01:20:35.134Z,23.23
2018-08-13T01:21:35.199Z,23.23
2018-08-13T01:22:35.374Z,23.23
2018-08-13T01:23:35.023Z,23.24
2018-08-13T01:24:35.251Z,23.22
2018-08-13T01:25:35.118Z,23.23
2018-08-13T01:26:35.321Z,23.24
2018-08-13T01:27:35.044Z,23.23
2018-08-13T01:28:35.319Z,23.23
2018-08-13T01:29:35.196Z,23.23
2018-08-13T01:30:35.034Z,23.23
2018-08-13T01:31:35.210Z,23.21
2018-08-13T01:32:35.125Z,23.21
2018-08-13T01:33:35.194Z,23.21
2018-08-13T01:34:35.163Z,23.24
2018-08-13T01:35:35.246Z,23.23
2018-08-13T01:36:35.024Z,23.23
2018-08-13T01:37:35.032Z,23.21
2018-08-13T01:38:35.136Z,23.23
2018-08-13T01:39:35.181Z,23.21
2018-08-13T01:40:35.153Z,23.23
2018-08-13T01:41:34.925Z,23.23
2018-08-13T01:42:35.022Z,23.23
2018-08-13T01:43:35.157Z,23.21
2018-08-13T01:44:35.074Z,23.23
2018-08-13T01:45:35.260Z,23.23
2018-08-13T01:46:35.183Z,23.22
2018-08-13T01:47:35.215Z,23.22
2018-08-13T01:48:35.062Z,23.22
2018-08-13T01:49:35.124Z,23.21
2018-08-13T01:50:34.890Z,23.22
2018-08-13T01:51:35.198Z,23.25
2018-08-13T01:52:35.035Z,23.22
2018-08-13T01:53:35.154Z,23.21
2018-08-13T01:54:35.232Z,23.22
2018-08-13T01:55:35.071Z,23.21
2018-08-13T01:56:35.269Z,23.23
2018-08-13T01:57:35.054Z,23.23
2018-08-13T01:58:35.282Z,23.21
2018-08-13T01:59:34.898Z,23.21
2018-08-13T02:00:35.017Z,23.21
2018-08-13T02:01:35.376Z,23.23
2018-08-13T02:02:34.977Z,23.21
2018-08-13T02:03:35.158Z,23.22
2018-08-13T02:04:35.261Z,23.21
2018-08-13T02:05:35.188Z,23.22
2018-08-13T02:06:34.922Z,23.22
2018-08-13T02:07:35.128Z,23.21
2018-08-13T02:08:34.903Z,23.2
2018-08-13T02:09:35.157Z,23.18
2018-08-13T02:10:35.253Z,23.21
2018-08-13T02:11:34.948Z,23.23
2018-08-13T02:12:35.190Z,23.21
2018-08-13T02:13:35.154Z,23.2
2018-08-13T02:14:35.152Z,23.21
2018-08-13T02:15:35.149Z,23.23
2018-08-13T02:16:35.242Z,23.22
2018-08-13T02:17:34.897Z,23.22
2018-08-13T02:18:35.025Z,23.18
2018-08-13T02:19:34.928Z,23.18
2018-08-13T02:20:35.167Z,23.21
2018-08-13T02:21:35.166Z,23.2
2018-08-13T02:22:35.042Z,23.18
2018-08-13T02:23:35.040Z,23.21
2018-08-13T02:24:35.058Z,23.21
2018-08-13T02:25:34.973Z,23.2
2018-08-13T02:26:35.036Z,23.2
2018-08-13T02:27:35.214Z,23.2
2018-08-13T02:28:35.368Z,23.18
2018-08-13T02:29:35.017Z,23.21
2018-08-13T02:30:35.363Z,23.2
2018-08-13T02:31:35.112Z,23.2
2018-08-13T02:32:34.990Z,23.21
2018-08-13T02:33:35.199Z,23.21
2018-08-13T02:34:35.033Z,23.2
2018-08-13T02:35:34.995Z,23.21
2018-08-13T02:36:35.235Z,23.21
2018-08-13T02:37:35.058Z,23.21
2018-08-13T02:38:35.467Z,23.22
2018-08-13T02:39:34.945Z,23.22
2018-08-13T02:40:35.141Z,23.21
2018-08-13T02:41:35.153Z,23.21
2018-08-13T02:42:35.182Z,23.18
2018-08-13T02:43:35.121Z,23.21
2018-08-13T02:44:35.086Z,23.21
2018-08-13T02:45:34.981Z,23.2
2018-08-13T02:46:35.054Z,23.21
2018-08-13T02:47:35.208Z,23.17
2018-08-13T02:48:35.102Z,23.21
2018-08-13T02:49:34.980Z,23.18
2018-08-13T02:50:35.064Z,23.21
2018-08-13T02:51:35.021Z,23.21
2018-08-13T02:52:34.952Z,23.18
2018-08-13T02:53:35.300Z,23.2
2018-08-13T02:54:35.079Z,23.17
2018-08-13T02:55:34.892Z,23.2
2018-08-13T02:56:35.041Z,23.18
2018-08-13T02:57:35.199Z,23.18
2018-08-13T02:58:35.142Z,23.21
2018-08-13T02:59:35.093Z,23.18
2018-08-13T03:00:35.213Z,23.17
2018-08-13T03:01:34.949Z,23.2
2018-08-13T03:02:34.911Z,23.18
2018-08-13T03:03:34.995Z,23.18
2018-08-13T03:04:35.201Z,23.2
2018-08-13T03:05:34.962Z,23.2
2018-08-13T03:06:35.044Z,23.2
2018-08-13T03:07:34.988Z,23.2
2018-08-13T03:08:35.092Z,23.18
2018-08-13T03:09:35.168Z,23.18
2018-08-13T03:10:34.895Z,23.18
2018-08-13T03:11:34.924Z,23.18
2018-08-13T03:12:35.023Z,23.21
2018-08-13T03:13:34.899Z,23.18
2018-08-13T03:14:35.055Z,23.2
2018-08-13T03:15:35.060Z,23.18
2018-08-13T03:16:34.969Z,23.17
2018-08-13T03:17:35.001Z,23.2
2018-08-13T03:18:35.008Z,23.18
2018-08-13T03:19:35.110Z,23.21
2018-08-13T03:20:35.182Z,23.2
2018-08-13T03:21:35.250Z,23.18
2018-08-13T03:22:35.001Z,23.18
2018-08-13T03:23:35.044Z,23.2
2018-08-13T03:24:35.114Z,23.18
2018-08-13T03:25:35.024Z,23.18
2018-08-13T03:26:35.055Z,23.18
2018-08-13T03:27:35.409Z,23.17
2018-08-13T03:28:35.276Z,23.16
2018-08-13T03:29:35.096Z,23.18
2018-08-13T03:30:35.205Z,23.18
2018-08-13T03:31:35.195Z,23.18
2018-08-13T03:32:35.271Z,23.21
2018-08-13T03:33:35.583Z,23.2
2018-08-13T03:34:34.982Z,23.18
2018-08-13T03:35:35.307Z,23.17
2018-08-13T03:36:35.356Z,23.2
2018-08-13T03:37:35.047Z,23.17
2018-08-13T03:38:34.993Z,23.21
2018-08-13T03:39:35.187Z,23.18
2018-08-13T03:40:35.221Z,23.18
2018-08-13T03:41:34.967Z,23.17
2018-08-13T03:42:35.240Z,23.17
2018-08-13T03:43:35.029Z,23.18
2018-08-13T03:44:35.033Z,23.17
2018-08-13T03:45:34.935Z,23.18
2018-08-13T03:46:35.233Z,23.18
2018-08-13T03:47:35.019Z,23.17
2018-08-13T03:48:35.078Z,23.17
2018-08-13T03:49:34.900Z,23.16
2018-08-13T03:50:35.435Z,23.17
2018-08-13T03:51:35.220Z,23.18
2018-08-13T03:52:35.172Z,23.18
2018-08-13T03:53:35.170Z,23.17
2018-08-13T03:54:35.057Z,23.17
2018-08-13T03:55:35.199Z,23.18
2018-08-13T03:56:34.994Z,23.18
2018-08-13T03:57:34.888Z,23.16
2018-08-13T03:58:35.166Z,23.17
2018-08-13T03:59:35.127Z,23.18
2018-08-13T04:00:34.865Z,23.17
2018-08-13T04:01:35.101Z,23.17
2018-08-13T04:02:35.148Z,23.18
2018-08-13T04:03:35.143Z,23.18
2018-08-13T04:04:35.085Z,23.18
2018-08-13T04:05:35.087Z,23.2
2018-08-13T04:06:35.156Z,23.18
2018-08-13T04:07:35.241Z,23.2
2018-08-13T04:08:35.062Z,23.2
2018-08-13T04:09:34.955Z,23.17
2018-08-13T04:10:35.068Z,23.18
2018-08-13T04:11:35.202Z,23.18
2018-08-13T04:12:35.103Z,23.18
2018-08-13T04:13:35.303Z,23.18
2018-08-13T04:14:34.919Z,23.18
2018-08-13T04:15:35.397Z,23.18
2018-08-13T04:16:35.223Z,23.18
2018-08-13T04:17:35.095Z,23.18
2018-08-13T04:18:35.092Z,23.21
2018-08-13T04:19:34.992Z,23.18
2018-08-13T04:20:35.149Z,23.18
2018-08-13T04:21:35.029Z,23.2
2018-08-13T04:22:35.058Z,23.2
2018-08-13T04:23:35.055Z,23.18
2018-08-13T04:24:35.108Z,23.18
2018-08-13T04:25:35.140Z,23.2
2018-08-13T04:26:34.982Z,23.17
2018-08-13T04:27:34.959Z,23.2
2018-08-13T04:28:34.935Z,23.17
2018-08-13T04:29:35.061Z,23.17
2018-08-13T04:30:34.961Z,23.18
2018-08-13T04:31:35.039Z,23.17
2018-08-13T04:32:35.185Z,23.18
2018-08-13T04:33:34.931Z,23.18
2018-08-13T04:34:35.108Z,23.21
2018-08-13T04:35:35.126Z,23.16
2018-08-13T04:36:35.065Z,23.18
2018-08-13T04:37:35.089Z,23.18
2018-08-13T04:38:35.179Z,23.17
2018-08-13T04:39:35.064Z,23.18
2018-08-13T04:40:34.871Z,23.17
2018-08-13T04:41:35.138Z,23.18
2018-08-13T04:42:35.024Z,23.16
2018-08-13T04:43:35.002Z,23.18
2018-08-13T04:44:35.107Z,23.18
2018-08-13T04:45:34.919Z,23.18
2018-08-13T04:46:35.027Z,23.16
2018-08-13T04:47:34.978Z,23.16
2018-08-13T04:48:35.117Z,23.17
2018-08-13T04:49:35.062Z,23.17
2018-08-13T04:50:35.003Z,23.18
2018-08-13T04:51:35.085Z,23.16
2018-08-13T04:52:35.041Z,23.17
2018-08-13T04:53:35.063Z,23.17
2018-08-13T04:54:34.926Z,23.16
2018-08-13T04:55:35.075Z,23.17
2018-08-13T04:56:34.937Z,23.16
2018-08-13T04:57:35.216Z,23.15
2018-08-13T04:58:35.139Z,23.17
2018-08-13T04:59:35.122Z,23.17
2018-08-13T05:00:35.138Z,23.17
2018-08-13T05:01:34.909Z,23.2
2018-08-13T05:02:35.077Z,23.18
2018-08-13T05:03:34.960Z,23.17
2018-08-13T05:04:34.995Z,23.16
2018-08-13T05:05:35.143Z,23.16
2018-08-13T05:06:34.874Z,23.16
2018-08-13T05:07:34.888Z,23.17
2018-08-13T05:08:35.142Z,23.18
2018-08-13T05:09:35.037Z,23.16
2018-08-13T05:10:35.097Z,23.2
2018-08-13T05:11:35.067Z,23.18
2018-08-13T05:12:35.004Z,23.16
2018-08-13T05:13:34.980Z,23.17
2018-08-13T05:14:34.933Z,23.18
2018-08-13T05:15:35.069Z,23.18
2018-08-13T05:16:35.223Z,23.2
2018-08-13T05:17:35.124Z,23.17
2018-08-13T05:18:35.022Z,23.18
2018-08-13T05:19:35.268Z,23.2
2018-08-13T05:20:35.172Z,23.18
2018-08-13T05:21:34.982Z,23.18
2018-08-13T05:22:35.199Z,23.17
2018-08-13T05:23:35.020Z,23.17
2018-08-13T05:24:35.030Z,23.18
2018-08-13T05:25:35.116Z,23.17
2018-08-13T05:26:35.230Z,23.2
2018-08-13T05:27:35.113Z,23.18
2018-08-13T05:28:35.055Z,23.17
2018-08-13T05:29:35.083Z,23.18
2018-08-13T05:30:34.956Z,23.2
2018-08-13T05:31:35.008Z,23.17
2018-08-13T05:32:34.978Z,23.17
2018-08-13T05:33:35.225Z,23.18
2018-08-13T05:34:34.925Z,23.18
2018-08-13T05:35:35.314Z,23.17
2018-08-13T05:36:35.050Z,23.18
2018-08-13T05:37:35.138Z,23.17
2018-08-13T05:38:35.041Z,23.2
2018-08-13T05:39:34.900Z,23.2
2018-08-13T05:40:35.191Z,23.16
2018-08-13T05:41:34.952Z,23.17
2018-08-13T05:42:35.166Z,23.17
2018-08-13T05:43:35.154Z,23.21
2018-08-13T05:44:34.913Z,23.21
2018-08-13T05:45:35.082Z,23.21
2018-08-13T05:46:35.224Z,23.16
2018-08-13T05:47:35.067Z,23.17
2018-08-13T05:48:34.961Z,23.18
2018-08-13T05:49:35.046Z,23.18
2018-08-13T05:50:34.866Z,23.18
2018-08-13T05:51:34.947Z,23.16
2018-08-13T05:52:35.115Z,23.18
2018-08-13T05:53:34.971Z,23.18
2018-08-13T05:54:35.033Z,23.17
2018-08-13T05:55:35.163Z,23.16
2018-08-13T05:56:34.990Z,23.17
2018-08-13T05:57:35.084Z,23.21
2018-08-13T05:58:34.879Z,23.16
2018-08-13T05:59:34.935Z,23.17
2018-08-13T06:00:35.009Z,23.17
2018-08-13T06:01:35.059Z,23.2
2018-08-13T06:02:35.067Z,23.17
2018-08-13T06:03:35.117Z,23.16
2018-08-13T06:04:35.187Z,23.17
2018-08-13T06:05:35.081Z,23.18
2018-08-13T06:06:35.067Z,23.2
2018-08-13T06:07:34.970Z,23.18
2018-08-13T06:08:35.117Z,23.18
2018-08-13T06:09:35.036Z,23.17
2018-08-13T06:10:35.029Z,23.17
2018-08-13T06:11:35.525Z,23.18
2018-08-13T06:12:35.005Z,23.18
2018-08-13T06:13:35.191Z,23.18
2018-08-13T06:14:34.912Z,23.17
2018-08-13T06:15:34.906Z,23.21
2018-08-13T06:16:34.923Z,23.18
2018-08-13T06:17:35.023Z,23.22
2018-08-13T06:18:34.993Z,23.17
2018-08-13T06:19:35.010Z,23.18
2018-08-13T06:20:34.932Z,23.18
2018-08-13T06:21:35.121Z,23.18
2018-08-13T06:22:34.887Z,23.18
2018-08-13T06:23:35.091Z,23.21
2018-08-13T06:24:35.094Z,23.17
2018-08-13T06:25:35.001Z,23.2
2018-08-13T06:26:34.909Z,23.17
2018-08-13T06:27:34.858Z,23.21
2018-08-13T06:28:35.088Z,23.2
2018-08-13T06:29:35.046Z,23.18
2018-08-13T06:30:35.119Z,23.17
2018-08-13T06:31:34.885Z,23.18
2018-08-13T06:32:34.970Z,23.21
2018-08-13T06:33:35.231Z,23.2
2018-08-13T06:34:34.951Z,23.18
2018-08-13T06:35:35.001Z,23.17
2018-08-13T06:36:35.133Z,23.18
2018-08-13T06:37:35.032Z,23.17
2018-08-13T06:38:35.104Z,23.2
2018-08-13T06:39:35.023Z,23.17
2018-08-13T06:40:34.938Z,23.18
2018-08-13T06:41:35.131Z,23.18
2018-08-13T06:42:35.141Z,23.18
2018-08-13T06:43:34.921Z,23.18
2018-08-13T06:44:35.026Z,23.17
2018-08-13T06:45:35.020Z,23.18
2018-08-13T06:46:35.180Z,23.15
2018-08-13T06:47:35.067Z,23.18
2018-08-13T06:48:35.081Z,23.18
2018-08-13T06:49:35.138Z,23.2
2018-08-13T06:50:35.147Z,23.2
2018-08-13T06:51:35.075Z,23.18
2018-08-13T06:52:35.225Z,23.2
2018-08-13T06:53:34.909Z,23.18
2018-08-13T06:54:35.022Z,23.2
2018-08-13T06:55:34.954Z,23.18
2018-08-13T06:56:35.146Z,23.18
2018-08-13T06:57:35.281Z,23.18
2018-08-13T06:58:34.975Z,23.16
2018-08-13T06:59:35.207Z,23.18
2018-08-13T07:00:34.943Z,23.17
2018-08-13T07:01:35.188Z,23.17
2018-08-13T07:02:34.856Z,23.17
2018-08-13T07:03:35.086Z,23.18
2018-08-13T07:04:34.968Z,23.18
2018-08-13T07:05:35.109Z,23.18
2018-08-13T07:06:34.974Z,23.17
2018-08-13T07:07:35.041Z,23.18
2018-08-13T07:08:34.917Z,23.18
2018-08-13T07:09:35.187Z,23.23
2018-08-13T07:10:35.001Z,23.23
2018-08-13T07:11:34.831Z,23.26
2018-08-13T07:12:34.917Z,23.22
2018-08-13T07:13:35.147Z,23.23
2018-08-13T07:14:35.195Z,23.23
2018-08-13T07:15:35.261Z,23.22
2018-08-13T07:16:34.908Z,23.26
2018-08-13T07:17:35.091Z,23.23
2018-08-13T07:18:35.060Z,23.26
2018-08-13T07:19:35.058Z,23.28
2018-08-13T07:20:34.834Z,23.3
2018-08-13T07:21:35.532Z,23.3
2018-08-13T07:22:35.056Z,23.34
2018-08-13T07:23:35.097Z,23.32
2018-08-13T07:24:35.218Z,23.32
2018-08-13T07:25:34.915Z,23.36
2018-08-13T07:26:35.094Z,23.35
2018-08-13T07:27:34.894Z,23.37
2018-08-13T07:28:35.141Z,23.38
2018-08-13T07:29:34.865Z,23.36
2018-08-13T07:30:35.066Z,23.37
2018-08-13T07:31:35.051Z,23.36
2018-08-13T07:32:35.089Z,23.38
2018-08-13T07:33:35.179Z,23.37
2018-08-13T07:34:35.262Z,23.37
2018-08-13T07:35:34.957Z,23.41
2018-08-13T07:36:34.949Z,23.4
2018-08-13T07:37:35.201Z,23.41
2018-08-13T07:38:34.925Z,23.44
2018-08-13T07:39:35.202Z,23.43
2018-08-13T07:40:34.903Z,23.42
2018-08-13T07:41:35.054Z,23.43
2018-08-13T07:42:35.119Z,23.42
2018-08-13T07:43:35.095Z,23.43
2018-08-13T07:44:34.971Z,23.42
2018-08-13T07:45:35.779Z,23.44
2018-08-13T07:46:35.388Z,23.47
2018-08-13T07:47:34.910Z,23.49
2018-08-13T07:48:35.013Z,23.45
2018-08-13T07:49:35.030Z,23.43
2018-08-13T07:50:34.993Z,23.41
2018-08-13T07:51:35.281Z,23.39
2018-08-13T07:52:35.074Z,23.38
2018-08-13T07:53:34.918Z,23.36
2018-08-13T07:54:35.126Z,23.35
2018-08-13T07:55:34.974Z,23.36
2018-08-13T07:56:34.935Z,23.36
2018-08-13T07:57:34.927Z,23.34
2018-08-13T07:58:35.098Z,23.32
2018-08-13T07:59:35.142Z,23.34
2018-08-13T08:00:34.911Z,23.31
2018-08-13T08:01:35.054Z,23.32
2018-08-13T08:02:34.897Z,23.31
2018-08-13T08:03:34.922Z,23.31
2018-08-13T08:04:34.938Z,23.31
2018-08-13T08:05:34.926Z,23.3
2018-08-13T08:06:34.969Z,23.28
2018-08-13T08:07:35.190Z,23.29
2018-08-13T08:08:35.123Z,23.3
2018-08-13T08:09:34.949Z,23.28
2018-08-13T08:10:35.157Z,23.3
2018-08-13T08:11:37.926Z,23.29
2018-08-13T08:12:35.145Z,23.3
2018-08-13T08:13:35.032Z,23.29
2018-08-13T08:14:35.153Z,23.28
2018-08-13T08:15:35.256Z,23.3
2018-08-13T08:16:34.952Z,23.28
2018-08-13T08:17:35.227Z,23.28
2018-08-13T08:18:35.221Z,23.3
2018-08-13T08:19:34.962Z,23.28
2018-08-13T08:20:35.179Z,23.28
2018-08-13T08:21:34.959Z,23.27
2018-08-13T08:22:35.155Z,23.27
2018-08-13T08:23:34.849Z,23.29
2018-08-13T08:24:34.975Z,23.28
2018-08-13T08:25:35.157Z,23.28
2018-08-13T08:26:35.009Z,23.28
2018-08-13T08:27:35.144Z,23.25
2018-08-13T08:28:34.897Z,23.28
2018-08-13T08:29:34.943Z,23.29
2018-08-13T08:30:35.220Z,23.28
2018-08-13T08:31:35.096Z,23.28
2018-08-13T08:32:34.936Z,23.29
2018-08-13T08:33:34.878Z,23.29
2018-08-13T08:34:35.156Z,23.27
2018-08-13T08:35:34.914Z,23.3
2018-08-13T08:36:34.995Z,23.3
2018-08-13T08:37:34.944Z,23.31
2018-08-13T08:38:35.144Z,23.3
2018-08-13T08:39:34.819Z,23.31
2018-08-13T08:40:35.457Z,23.28
2018-08-13T08:41:35.067Z,23.26
2018-08-13T08:42:35.037Z,23.26
2018-08-13T08:43:34.805Z,23.25
2018-08-13T08:44:35.199Z,23.28
2018-08-13T08:45:35.271Z,23.29
2018-08-13T08:46:34.936Z,23.29
2018-08-13T08:47:35.162Z,23.27
2018-08-13T08:48:34.965Z,23.28
2018-08-13T08:49:35.386Z,23.28
2018-08-13T08:50:34.862Z,23.27
2018-08-13T08:51:35.108Z,23.28
2018-08-13T08:52:35.007Z,23.28
2018-08-13T08:53:35.429Z,23.29
2018-08-13T08:54:35.166Z,23.28
2018-08-13T08:55:35.135Z,23.29
2018-08-13T08:56:35.100Z,23.28
2018-08-13T08:57:35.031Z,23.28
2018-08-13T08:58:35.098Z,23.31
2018-08-13T08:59:34.954Z,23.28
2018-08-13T09:00:35.119Z,23.3
2018-08-13T09:01:34.913Z,23.3
2018-08-13T09:02:35.049Z,23.31
2018-08-13T09:03:35.214Z,23.29
2018-08-13T09:04:34.965Z,23.3
2018-08-13T09:05:35.179Z,23.3
2018-08-13T09:06:35.152Z,23.29
2018-08-13T09:07:35.029Z,23.28
2018-08-13T09:08:34.917Z,23.28
2018-08-13T09:09:35.196Z,23.29
2018-08-13T09:10:34.927Z,23.27
2018-08-13T09:11:35.063Z,23.29
2018-08-13T09:12:35.032Z,23.29
2018-08-13T09:13:35.205Z,23.29
2018-08-13T09:14:35.134Z,23.29
2018-08-13T09:15:35.004Z,23.29
2018-08-13T09:16:34.983Z,23.27
2018-08-13T09:17:34.923Z,23.29
2018-08-13T09:18:34.870Z,23.3
2018-08-13T09:19:35.088Z,23.29
2018-08-13T09:20:35.047Z,23.29
2018-08-13T09:21:35.157Z,23.28
2018-08-13T09:22:35.070Z,23.29
2018-08-13T09:23:35.033Z,23.28
2018-08-13T09:24:35.056Z,23.3
2018-08-13T09:25:35.617Z,23.29
2018-08-13T09:26:34.905Z,23.3
2018-08-13T09:27:35.071Z,23.29
2018-08-13T09:28:34.968Z,23.3
2018-08-13T09:29:35.030Z,23.28
2018-08-13T09:30:34.847Z,23.29
2018-08-13T09:31:34.977Z,23.3
2018-08-13T09:32:34.829Z,23.29
2018-08-13T09:33:35.084Z,23.29
2018-08-13T09:34:35.051Z,23.28
2018-08-13T09:35:35.197Z,23.29
2018-08-13T09:36:35.099Z,23.28
2018-08-13T09:37:34.904Z,23.28
2018-08-13T09:38:35.052Z,23.29
2018-08-13T09:39:35.030Z,23.29
2018-08-13T09:40:34.939Z,23.28
2018-08-13T09:41:34.955Z,23.29
2018-08-13T09:42:35.052Z,23.27
2018-08-13T09:43:34.933Z,23.28
2018-08-13T09:44:35.034Z,23.27
2018-08-13T09:45:35.098Z,23.28
2018-08-13T09:46:34.898Z,23.29
2018-08-13T09:47:35.195Z,23.28
2018-08-13T09:48:35.172Z,23.28
2018-08-13T09:49:34.998Z,23.28
2018-08-13T09:50:35.120Z,23.28
2018-08-13T09:51:34.950Z,23.27
2018-08-13T09:52:34.774Z,23.27
2018-08-13T09:53:35.017Z,23.28
2018-08-13T09:54:34.950Z,23.28
2018-08-13T09:55:34.853Z,23.28
2018-08-13T09:56:34.941Z,23.3
2018-08-13T09:57:35.201Z,23.28
2018-08-13T09:58:34.922Z,23.28
2018-08-13T09:59:35.031Z,23.27
2018-08-13T10:00:35.188Z,23.27
2018-08-13T10:01:34.942Z,23.28
2018-08-13T10:02:34.944Z,23.28
2018-08-13T10:03:35.077Z,23.26
2018-08-13T10:04:34.963Z,23.29
2018-08-13T10:05:34.883Z,23.28
2018-08-13T10:06:34.908Z,23.28
2018-08-13T10:07:34.977Z,23.27
2018-08-13T10:08:35.109Z,23.28
2018-08-13T10:09:35.140Z,23.28
2018-08-13T10:10:35.118Z,23.26
2018-08-13T10:11:34.866Z,23.26
2018-08-13T10:12:34.959Z,23.26
2018-08-13T10:13:34.913Z,23.27
2018-08-13T10:14:35.035Z,23.26
2018-08-13T10:15:34.804Z,23.27
2018-08-13T10:16:35.256Z,23.28
2018-08-13T10:17:35.383Z,23.26
2018-08-13T10:18:35.829Z,23.27
2018-08-13T10:19:35.020Z,23.26
2018-08-13T10:20:35.030Z,23.26
2018-08-13T10:21:35.090Z,23.27
2018-08-13T10:22:36.746Z,23.28
2018-08-13T10:23:35.123Z,23.27
2018-08-13T10:24:34.885Z,23.27
2018-08-13T10:25:35.163Z,23.27
2018-08-13T10:26:34.951Z,23.27
2018-08-13T10:27:34.963Z,23.26
2018-08-13T10:28:35.127Z,23.26
2018-08-13T10:29:34.987Z,23.27
2018-08-13T10:30:34.828Z,23.27
2018-08-13T10:31:35.830Z,23.28
2018-08-13T10:32:35.011Z,23.27
2018-08-13T10:33:34.922Z,23.27
2018-08-13T10:34:35.211Z,23.26
2018-08-13T10:35:35.747Z,23.24
2018-08-13T10:36:35.701Z,23.27
2018-08-13T10:37:35.031Z,23.26
2018-08-13T10:38:35.206Z,23.27
2018-08-13T10:39:34.893Z,23.26
2018-08-13T10:40:34.920Z,23.26
2018-08-13T10:41:35.148Z,23.25
2018-08-13T10:42:34.860Z,23.26
2018-08-13T10:43:35.513Z,23.27
2018-08-13T10:44:35.231Z,23.24
2018-08-13T10:45:35.021Z,23.25
2018-08-13T10:46:35.108Z,23.26
2018-08-13T10:47:35.000Z,23.25
2018-08-13T10:48:34.967Z,23.27
2018-08-13T10:49:35.136Z,23.25
2018-08-13T10:50:35.111Z,23.25
2018-08-13T10:51:35.049Z,23.25
2018-08-13T10:52:35.042Z,23.25
2018-08-13T10:53:34.844Z,23.26
2018-08-13T10:54:35.024Z,23.25
2018-08-13T10:55:34.863Z,23.25
2018-08-13T10:56:34.981Z,23.23
2018-08-13T10:57:34.826Z,23.26
2018-08-13T10:58:35.007Z,23.25
2018-08-13T10:59:34.954Z,23.24
2018-08-13T11:00:34.837Z,23.25
2018-08-13T11:01:35.013Z,23.25
2018-08-13T11:02:35.041Z,23.24
2018-08-13T11:03:35.138Z,23.25
2018-08-13T11:04:35.003Z,23.27
2018-08-13T11:05:35.060Z,23.27
2018-08-13T11:06:34.900Z,23.26
2018-08-13T11:07:34.967Z,23.23
2018-08-13T11:08:34.888Z,23.24
2018-08-13T11:09:34.874Z,23.25
2018-08-13T11:10:35.118Z,23.24
2018-08-13T11:11:35.044Z,23.23
2018-08-13T11:12:34.934Z,23.23
2018-08-13T11:13:35.754Z,23.23
2018-08-13T11:14:34.922Z,23.26
2018-08-13T11:15:34.916Z,23.26
2018-08-13T11:16:34.919Z,23.24
2018-08-13T11:17:34.790Z,23.26
2018-08-13T11:18:34.849Z,23.26
2018-08-13T11:19:35.102Z,23.26
2018-08-13T11:20:34.939Z,23.24
2018-08-13T11:21:35.117Z,23.24
2018-08-13T11:22:35.049Z,23.24
2018-08-13T11:23:35.010Z,23.24
2018-08-13T11:24:34.884Z,23.24
2018-08-13T11:25:34.932Z,23.26
2018-08-13T11:26:35.178Z,23.28
2018-08-13T11:27:34.727Z,23.26
2018-08-13T11:28:35.704Z,23.25
2018-08-13T11:29:34.977Z,23.26
2018-08-13T11:30:34.971Z,23.26
2018-08-13T11:31:35.159Z,23.24
2018-08-13T11:32:35.060Z,23.26
2018-08-13T11:33:34.851Z,23.26
2018-08-13T11:34:35.169Z,23.24
2018-08-13T11:35:35.113Z,23.23
2018-08-13T11:36:35.006Z,23.23
2018-08-13T11:37:35.096Z,23.23
2018-08-13T11:38:34.955Z,23.24
2018-08-13T11:39:34.836Z,23.24
2018-08-13T11:40:35.111Z,23.24
2018-08-13T11:41:35.022Z,23.25
2018-08-13T11:42:34.950Z,23.23
2018-08-13T11:43:34.948Z,23.25
2018-08-13T11:44:34.942Z,23.24
2018-08-13T11:45:35.050Z,23.23
2018-08-13T11:46:34.960Z,23.24
2018-08-13T11:47:35.275Z,23.25
2018-08-13T11:48:34.964Z,23.23
2018-08-13T11:49:35.199Z,23.24
2018-08-13T11:50:34.916Z,23.23
2018-08-13T11:51:34.975Z,23.24
2018-08-13T11:52:35.352Z,23.24
2018-08-13T11:53:35.447Z,23.25
2018-08-13T11:54:34.928Z,23.23
2018-08-13T11:55:34.959Z,23.24
2018-08-13T11:56:35.019Z,23.25
2018-08-13T11:57:34.906Z,23.27
2018-08-13T11:58:34.973Z,23.25
2018-08-13T11:59:35.022Z,23.24
2018-08-13T12:00:34.976Z,23.23
2018-08-13T12:01:34.882Z,23.24
2018-08-13T12:02:34.922Z,23.23
2018-08-13T12:03:34.932Z,23.22
2018-08-13T12:04:34.992Z,23.25
2018-08-13T12:05:34.965Z,23.25
2018-08-13T12:06:34.761Z,23.21
2018-08-13T12:07:35.161Z,23.24
2018-08-13T12:08:34.992Z,23.24
2018-08-13T12:09:34.979Z,23.23
2018-08-13T12:10:34.978Z,23.24
2018-08-13T12:11:35.024Z,23.24
2018-08-13T12:12:34.794Z,23.23
2018-08-13T12:13:35.186Z,23.22
2018-08-13T12:14:35.159Z,23.23
2018-08-13T12:15:35.277Z,23.24
2018-08-13T12:16:34.936Z,23.23
2018-08-13T12:17:35.179Z,23.25
2018-08-13T12:18:34.846Z,23.24
2018-08-13T12:19:35.680Z,23.23
2018-08-13T12:20:35.026Z,23.27
2018-08-13T12:21:34.964Z,23.24
2018-08-13T12:22:34.969Z,23.23
2018-08-13T12:23:34.754Z,23.24
2018-08-13T12:24:35.086Z,23.23
2018-08-13T12:25:35.010Z,23.23
2018-08-13T12:26:34.912Z,23.26
2018-08-13T12:27:34.913Z,23.24
2018-08-13T12:28:35.135Z,23.24
2018-08-13T12:29:35.038Z,23.24
2018-08-13T12:30:34.889Z,23.24
2018-08-13T12:31:35.088Z,23.25
2018-08-13T12:32:35.039Z,23.24
2018-08-13T12:33:34.927Z,23.23
2018-08-13T12:34:34.889Z,23.24
2018-08-13T12:35:34.945Z,23.23
2018-08-13T12:36:34.980Z,23.24
2018-08-13T12:37:35.011Z,23.25
2018-08-13T12:38:34.826Z,23.23
2018-08-13T12:39:35.167Z,23.22
2018-08-13T12:40:34.988Z,23.24
2018-08-13T12:41:35.060Z,23.23
2018-08-13T12:42:35.099Z,23.22
2018-08-13T12:43:34.890Z,23.23
2018-08-13T12:44:35.149Z,23.23
2018-08-13T12:45:34.787Z,23.23
2018-08-13T12:46:34.838Z,23.24
2018-08-13T12:47:34.895Z,23.23
2018-08-13T12:48:35.012Z,23.23
2018-08-13T12:49:35.018Z,23.24
2018-08-13T12:50:34.898Z,23.23
2018-08-13T12:51:34.990Z,23.24
2018-08-13T12:52:35.139Z,23.23
2018-08-13T12:53:34.893Z,23.22
2018-08-13T12:54:34.827Z,23.22